sensor_id;sensor_type;location;lat;lon;timestamp;temperature;humidity
53264;DHT22;39153;52.680;6.172;2023-06-10T00:01:58;20.90;89.90
53264;DHT22;39153;52.680;6.172;2023-06-10T00:04:26;20.80;89.80
53264;DHT22;39153;52.680;6.172;2023-06-10T00:06:52;20.80;89.80
53264;DHT22;39153;52.680;6.172;2023-06-10T00:09:19;20.80;89.80
53264;DHT22;39153;52.680;6.172;2023-06-10T00:11:47;20.80;89.90
53264;DHT22;39153;52.680;6.172;2023-06-10T00:14:13;20.70;89.70
53264;DHT22;39153;52.680;6.172;2023-06-10T00:16:39;20.70;89.80
53264;DHT22;39153;52.680;6.172;2023-06-10T00:19:05;20.60;89.80
53264;DHT22;39153;52.680;6.172;2023-06-10T00:21:32;20.50;90.00
53264;DHT22;39153;52.680;6.172;2023-06-10T00:24:09;20.40;89.90
53264;DHT22;39153;52.680;6.172;2023-06-10T00:26:39;20.50;90.00
53264;DHT22;39153;52.680;6.172;2023-06-10T00:29:06;20.40;90.00
53264;DHT22;39153;52.680;6.172;2023-06-10T00:31:39;20.40;90.00
53264;DHT22;39153;52.680;6.172;2023-06-10T00:34:08;20.40;90.10
53264;DHT22;39153;52.680;6.172;2023-06-10T00:36:34;20.30;90.10
53264;DHT22;39153;52.680;6.172;2023-06-10T00:39:01;20.30;90.10
53264;DHT22;39153;52.680;6.172;2023-06-10T00:41:27;20.30;90.10
53264;DHT22;39153;52.680;6.172;2023-06-10T00:43:52;20.20;90.10
53264;DHT22;39153;52.680;6.172;2023-06-10T00:46:18;20.20;90.20
53264;DHT22;39153;52.680;6.172;2023-06-10T00:48:45;20.10;90.10
53264;DHT22;39153;52.680;6.172;2023-06-10T00:51:12;20.10;90.20
53264;DHT22;39153;52.680;6.172;2023-06-10T00:53:39;20.00;90.20
53264;DHT22;39153;52.680;6.172;2023-06-10T00:56:06;20.00;90.30
53264;DHT22;39153;52.680;6.172;2023-06-10T00:58:32;19.90;90.30
53264;DHT22;39153;52.680;6.172;2023-06-10T01:00:58;19.80;90.30
53264;DHT22;39153;52.680;6.172;2023-06-10T01:03:24;19.80;90.50
53264;DHT22;39153;52.680;6.172;2023-06-10T01:09:25;19.70;90.80
53264;DHT22;39153;52.680;6.172;2023-06-10T01:12:16;19.70;91.00
53264;DHT22;39153;52.680;6.172;2023-06-10T01:14:44;19.60;91.10
53264;DHT22;39153;52.680;6.172;2023-06-10T01:17:11;19.60;91.00
53264;DHT22;39153;52.680;6.172;2023-06-10T01:19:37;19.50;91.20
53264;DHT22;39153;52.680;6.172;2023-06-10T01:22:04;19.60;91.20
53264;DHT22;39153;52.680;6.172;2023-06-10T01:24:31;19.50;91.20
53264;DHT22;39153;52.680;6.172;2023-06-10T01:27:01;19.50;91.30
53264;DHT22;39153;52.680;6.172;2023-06-10T01:29:46;19.40;91.40
53264;DHT22;39153;52.680;6.172;2023-06-10T01:32:18;19.50;91.60
53264;DHT22;39153;52.680;6.172;2023-06-10T01:34:47;19.50;91.60
53264;DHT22;39153;52.680;6.172;2023-06-10T01:37:17;19.40;91.60
53264;DHT22;39153;52.680;6.172;2023-06-10T01:39:45;19.40;91.70
53264;DHT22;39153;52.680;6.172;2023-06-10T01:42:11;19.30;91.80
53264;DHT22;39153;52.680;6.172;2023-06-10T01:44:38;19.20;92.00
53264;DHT22;39153;52.680;6.172;2023-06-10T01:47:04;19.20;92.10
53264;DHT22;39153;52.680;6.172;2023-06-10T01:49:30;19.10;92.30
53264;DHT22;39153;52.680;6.172;2023-06-10T01:51:56;19.10;92.30
53264;DHT22;39153;52.680;6.172;2023-06-10T01:54:21;19.10;92.40
53264;DHT22;39153;52.680;6.172;2023-06-10T01:56:47;19.10;92.50
53264;DHT22;39153;52.680;6.172;2023-06-10T01:59:13;19.10;92.60
53264;DHT22;39153;52.680;6.172;2023-06-10T02:01:38;19.10;92.60
53264;DHT22;39153;52.680;6.172;2023-06-10T02:04:04;19.00;92.60
53264;DHT22;39153;52.680;6.172;2023-06-10T02:06:30;18.90;92.80
53264;DHT22;39153;52.680;6.172;2023-06-10T02:08:56;18.90;92.90
53264;DHT22;39153;52.680;6.172;2023-06-10T02:11:21;18.90;93.00
53264;DHT22;39153;52.680;6.172;2023-06-10T02:13:47;18.80;93.00
53264;DHT22;39153;52.680;6.172;2023-06-10T02:16:13;18.80;93.10
53264;DHT22;39153;52.680;6.172;2023-06-10T02:18:41;18.80;93.20
53264;DHT22;39153;52.680;6.172;2023-06-10T02:21:08;18.80;93.20
53264;DHT22;39153;52.680;6.172;2023-06-10T02:23:34;18.70;93.30
53264;DHT22;39153;52.680;6.172;2023-06-10T02:26:00;18.70;93.50
53264;DHT22;39153;52.680;6.172;2023-06-10T02:28:27;18.60;93.50
53264;DHT22;39153;52.680;6.172;2023-06-10T02:30:53;18.60;93.60
53264;DHT22;39153;52.680;6.172;2023-06-10T02:33:19;18.50;93.70
53264;DHT22;39153;52.680;6.172;2023-06-10T02:35:45;18.50;93.80
53264;DHT22;39153;52.680;6.172;2023-06-10T02:38:11;18.40;94.00
53264;DHT22;39153;52.680;6.172;2023-06-10T02:40:36;18.40;94.10
53264;DHT22;39153;52.680;6.172;2023-06-10T02:43:02;18.30;94.10
53264;DHT22;39153;52.680;6.172;2023-06-10T02:45:28;18.30;94.20
53264;DHT22;39153;52.680;6.172;2023-06-10T02:47:54;18.30;94.30
53264;DHT22;39153;52.680;6.172;2023-06-10T02:50:19;18.20;94.30
53264;DHT22;39153;52.680;6.172;2023-06-10T02:52:45;18.20;94.40
53264;DHT22;39153;52.680;6.172;2023-06-10T02:55:11;18.20;94.50
53264;DHT22;39153;52.680;6.172;2023-06-10T02:57:37;18.10;94.60
53264;DHT22;39153;52.680;6.172;2023-06-10T03:00:03;18.10;94.70
53264;DHT22;39153;52.680;6.172;2023-06-10T03:02:34;18.10;94.80
53264;DHT22;39153;52.680;6.172;2023-06-10T03:05:02;18.10;94.90
53264;DHT22;39153;52.680;6.172;2023-06-10T03:07:28;18.10;95.00
53264;DHT22;39153;52.680;6.172;2023-06-10T03:09:54;18.00;95.30
53264;DHT22;39153;52.680;6.172;2023-06-10T03:12:20;18.00;95.10
53264;DHT22;39153;52.680;6.172;2023-06-10T03:14:45;17.90;95.20
53264;DHT22;39153;52.680;6.172;2023-06-10T03:17:11;17.90;95.30
53264;DHT22;39153;52.680;6.172;2023-06-10T03:19:37;17.80;95.40
53264;DHT22;39153;52.680;6.172;2023-06-10T03:22:15;17.80;95.50
53264;DHT22;39153;52.680;6.172;2023-06-10T03:24:42;17.70;95.60
53264;DHT22;39153;52.680;6.172;2023-06-10T03:27:10;17.70;95.70
53264;DHT22;39153;52.680;6.172;2023-06-10T03:29:39;17.70;95.90
53264;DHT22;39153;52.680;6.172;2023-06-10T03:32:05;17.70;96.00
53264;DHT22;39153;52.680;6.172;2023-06-10T03:34:31;17.60;96.00
53264;DHT22;39153;52.680;6.172;2023-06-10T03:36:58;17.60;96.10
53264;DHT22;39153;52.680;6.172;2023-06-10T03:39:23;17.60;96.20
53264;DHT22;39153;52.680;6.172;2023-06-10T03:41:50;17.60;96.30
53264;DHT22;39153;52.680;6.172;2023-06-10T03:44:16;17.50;96.40
53264;DHT22;39153;52.680;6.172;2023-06-10T03:46:41;17.50;96.70
53264;DHT22;39153;52.680;6.172;2023-06-10T03:49:07;17.50;96.50
53264;DHT22;39153;52.680;6.172;2023-06-10T03:51:36;17.50;96.50
53264;DHT22;39153;52.680;6.172;2023-06-10T03:54:02;17.40;96.70
53264;DHT22;39153;52.680;6.172;2023-06-10T03:56:27;17.40;96.70
53264;DHT22;39153;52.680;6.172;2023-06-10T03:58:54;17.40;96.80
53264;DHT22;39153;52.680;6.172;2023-06-10T04:01:20;17.40;96.80
53264;DHT22;39153;52.680;6.172;2023-06-10T04:03:49;17.30;96.80
53264;DHT22;39153;52.680;6.172;2023-06-10T04:06:17;17.30;96.90
53264;DHT22;39153;52.680;6.172;2023-06-10T04:08:42;17.30;97.30
53264;DHT22;39153;52.680;6.172;2023-06-10T04:11:08;17.30;97.10
53264;DHT22;39153;52.680;6.172;2023-06-10T04:13:34;17.30;97.20
53264;DHT22;39153;52.680;6.172;2023-06-10T04:16:00;17.10;97.10
53264;DHT22;39153;52.680;6.172;2023-06-10T04:18:26;17.30;97.20
53264;DHT22;39153;52.680;6.172;2023-06-10T04:20:54;17.30;97.30
53264;DHT22;39153;52.680;6.172;2023-06-10T04:23:21;17.30;97.40
53264;DHT22;39153;52.680;6.172;2023-06-10T04:25:46;17.30;97.40
53264;DHT22;39153;52.680;6.172;2023-06-10T04:28:12;17.30;97.50
53264;DHT22;39153;52.680;6.172;2023-06-10T04:30:38;17.30;97.80
53264;DHT22;39153;52.680;6.172;2023-06-10T04:33:04;17.30;97.50
53264;DHT22;39153;52.680;6.172;2023-06-10T04:35:33;17.30;97.60
53264;DHT22;39153;52.680;6.172;2023-06-10T04:37:59;17.30;97.60
53264;DHT22;39153;52.680;6.172;2023-06-10T04:40:25;17.30;97.70
53264;DHT22;39153;52.680;6.172;2023-06-10T04:42:51;17.40;97.70
53264;DHT22;39153;52.680;6.172;2023-06-10T04:45:16;17.40;97.70
53264;DHT22;39153;52.680;6.172;2023-06-10T04:47:42;17.40;97.80
53264;DHT22;39153;52.680;6.172;2023-06-10T04:50:09;17.40;97.80
53264;DHT22;39153;52.680;6.172;2023-06-10T04:52:34;17.40;97.80
53264;DHT22;39153;52.680;6.172;2023-06-10T04:55:00;17.40;97.90
53264;DHT22;39153;52.680;6.172;2023-06-10T04:57:26;17.40;98.00
53264;DHT22;39153;52.680;6.172;2023-06-10T04:59:52;17.40;98.10
53264;DHT22;39153;52.680;6.172;2023-06-10T05:02:18;17.40;98.20
53264;DHT22;39153;52.680;6.172;2023-06-10T05:04:44;17.40;98.30
53264;DHT22;39153;52.680;6.172;2023-06-10T05:07:09;17.40;98.30
53264;DHT22;39153;52.680;6.172;2023-06-10T05:09:35;17.50;98.40
53264;DHT22;39153;52.680;6.172;2023-06-10T05:12:01;17.50;98.50
53264;DHT22;39153;52.680;6.172;2023-06-10T05:14:27;17.50;98.60
53264;DHT22;39153;52.680;6.172;2023-06-10T05:16:53;17.50;98.60
53264;DHT22;39153;52.680;6.172;2023-06-10T05:19:19;17.50;98.70
53264;DHT22;39153;52.680;6.172;2023-06-10T05:21:45;17.60;98.80
53264;DHT22;39153;52.680;6.172;2023-06-10T05:24:11;17.60;98.80
53264;DHT22;39153;52.680;6.172;2023-06-10T05:26:37;17.60;98.80
53264;DHT22;39153;52.680;6.172;2023-06-10T05:29:06;17.70;98.90
53264;DHT22;39153;52.680;6.172;2023-06-10T05:31:32;17.70;99.00
53264;DHT22;39153;52.680;6.172;2023-06-10T05:33:58;17.70;99.00
53264;DHT22;39153;52.680;6.172;2023-06-10T05:36:24;17.80;99.10
53264;DHT22;39153;52.680;6.172;2023-06-10T05:38:51;17.80;99.10
53264;DHT22;39153;52.680;6.172;2023-06-10T05:41:17;17.90;99.20
53264;DHT22;39153;52.680;6.172;2023-06-10T05:43:43;17.90;99.10
53264;DHT22;39153;52.680;6.172;2023-06-10T05:46:08;17.90;99.10
53264;DHT22;39153;52.680;6.172;2023-06-10T05:48:34;17.90;99.10
53264;DHT22;39153;52.680;6.172;2023-06-10T05:51:00;18.00;99.30
53264;DHT22;39153;52.680;6.172;2023-06-10T05:53:25;18.10;99.30
53264;DHT22;39153;52.680;6.172;2023-06-10T05:55:51;18.10;99.30
53264;DHT22;39153;52.680;6.172;2023-06-10T05:58:23;18.10;99.20
53264;DHT22;39153;52.680;6.172;2023-06-10T06:00:49;18.20;99.30
53264;DHT22;39153;52.680;6.172;2023-06-10T06:03:14;18.20;99.30
53264;DHT22;39153;52.680;6.172;2023-06-10T06:05:40;18.20;99.30
53264;DHT22;39153;52.680;6.172;2023-06-10T06:08:07;18.30;99.30
53264;DHT22;39153;52.680;6.172;2023-06-10T06:10:33;18.30;99.20
53264;DHT22;39153;52.680;6.172;2023-06-10T06:13:00;18.30;99.20
53264;DHT22;39153;52.680;6.172;2023-06-10T06:15:26;18.40;99.30
53264;DHT22;39153;52.680;6.172;2023-06-10T06:17:51;18.40;99.10
53264;DHT22;39153;52.680;6.172;2023-06-10T06:20:21;18.50;99.10
53264;DHT22;39153;52.680;6.172;2023-06-10T06:22:47;18.50;99.20
53264;DHT22;39153;52.680;6.172;2023-06-10T06:25:13;18.60;99.20
53264;DHT22;39153;52.680;6.172;2023-06-10T06:27:39;18.60;99.00
53264;DHT22;39153;52.680;6.172;2023-06-10T06:30:05;18.70;99.00
53264;DHT22;39153;52.680;6.172;2023-06-10T06:32:31;18.70;98.90
53264;DHT22;39153;52.680;6.172;2023-06-10T06:34:57;18.70;98.90
53264;DHT22;39153;52.680;6.172;2023-06-10T06:37:24;18.80;98.90
53264;DHT22;39153;52.680;6.172;2023-06-10T06:39:51;18.90;99.00
53264;DHT22;39153;52.680;6.172;2023-06-10T06:42:17;19.00;98.80
53264;DHT22;39153;52.680;6.172;2023-06-10T06:44:43;19.00;98.70
53264;DHT22;39153;52.680;6.172;2023-06-10T06:47:09;19.10;98.80
53264;DHT22;39153;52.680;6.172;2023-06-10T06:49:34;19.10;98.70
53264;DHT22;39153;52.680;6.172;2023-06-10T06:52:01;19.20;98.80
53264;DHT22;39153;52.680;6.172;2023-06-10T06:54:27;19.30;98.50
53264;DHT22;39153;52.680;6.172;2023-06-10T06:56:52;19.30;98.40
53264;DHT22;39153;52.680;6.172;2023-06-10T06:59:18;19.30;98.30
53264;DHT22;39153;52.680;6.172;2023-06-10T07:01:45;19.40;98.20
53264;DHT22;39153;52.680;6.172;2023-06-10T07:04:11;19.40;98.10
53264;DHT22;39153;52.680;6.172;2023-06-10T07:06:37;19.50;98.30
53264;DHT22;39153;52.680;6.172;2023-06-10T07:09:04;19.60;98.20
53264;DHT22;39153;52.680;6.172;2023-06-10T07:11:30;19.60;98.10
53264;DHT22;39153;52.680;6.172;2023-06-10T07:13:56;19.70;98.00
53264;DHT22;39153;52.680;6.172;2023-06-10T07:16:22;19.80;97.90
53264;DHT22;39153;52.680;6.172;2023-06-10T07:18:48;19.80;97.80
53264;DHT22;39153;52.680;6.172;2023-06-10T07:21:13;19.90;97.70
53264;DHT22;39153;52.680;6.172;2023-06-10T07:23:43;19.90;97.70
53264;DHT22;39153;52.680;6.172;2023-06-10T07:26:09;20.00;97.70
53264;DHT22;39153;52.680;6.172;2023-06-10T07:28:40;20.10;97.70
53264;DHT22;39153;52.680;6.172;2023-06-10T07:31:06;20.10;97.40
53264;DHT22;39153;52.680;6.172;2023-06-10T07:33:32;20.10;97.40
53264;DHT22;39153;52.680;6.172;2023-06-10T07:35:57;20.20;97.60
53264;DHT22;39153;52.680;6.172;2023-06-10T07:38:24;20.30;97.70
53264;DHT22;39153;52.680;6.172;2023-06-10T07:40:49;20.40;97.40
53264;DHT22;39153;52.680;6.172;2023-06-10T07:43:15;20.50;97.30
53264;DHT22;39153;52.680;6.172;2023-06-10T07:45:41;20.50;97.10
53264;DHT22;39153;52.680;6.172;2023-06-10T07:48:06;20.60;97.10
53264;DHT22;39153;52.680;6.172;2023-06-10T07:50:33;20.60;97.20
53264;DHT22;39153;52.680;6.172;2023-06-10T07:52:59;20.70;96.90
53264;DHT22;39153;52.680;6.172;2023-06-10T07:55:25;20.70;96.80
53264;DHT22;39153;52.680;6.172;2023-06-10T07:57:54;20.80;96.70
53264;DHT22;39153;52.680;6.172;2023-06-10T08:00:20;20.80;96.70
53264;DHT22;39153;52.680;6.172;2023-06-10T08:02:46;20.90;96.70
53264;DHT22;39153;52.680;6.172;2023-06-10T08:05:12;21.00;96.70
53264;DHT22;39153;52.680;6.172;2023-06-10T08:07:39;21.00;96.70
53264;DHT22;39153;52.680;6.172;2023-06-10T08:10:06;21.10;96.60
53264;DHT22;39153;52.680;6.172;2023-06-10T08:12:33;21.20;96.40
53264;DHT22;39153;52.680;6.172;2023-06-10T08:14:58;21.20;95.90
53264;DHT22;39153;52.680;6.172;2023-06-10T08:17:24;21.30;96.10
53264;DHT22;39153;52.680;6.172;2023-06-10T08:19:50;21.40;96.10
53264;DHT22;39153;52.680;6.172;2023-06-10T08:22:16;21.50;95.90
53264;DHT22;39153;52.680;6.172;2023-06-10T08:24:42;21.50;95.30
53264;DHT22;39153;52.680;6.172;2023-06-10T08:27:07;21.60;95.20
53264;DHT22;39153;52.680;6.172;2023-06-10T08:29:33;21.60;95.20
53264;DHT22;39153;52.680;6.172;2023-06-10T08:31:58;21.70;95.30
53264;DHT22;39153;52.680;6.172;2023-06-10T08:34:24;21.80;95.30
53264;DHT22;39153;52.680;6.172;2023-06-10T08:36:50;21.90;95.40
53264;DHT22;39153;52.680;6.172;2023-06-10T08:39:21;22.00;95.00
53264;DHT22;39153;52.680;6.172;2023-06-10T08:44:30;22.30;94.80
53264;DHT22;39153;52.680;6.172;2023-06-10T08:46:58;22.30;94.60
53264;DHT22;39153;52.680;6.172;2023-06-10T08:49:26;22.50;94.50
53264;DHT22;39153;52.680;6.172;2023-06-10T08:51:58;22.50;94.40
53264;DHT22;39153;52.680;6.172;2023-06-10T08:54:31;22.50;94.00
53264;DHT22;39153;52.680;6.172;2023-06-10T08:56:59;22.60;93.50
53264;DHT22;39153;52.680;6.172;2023-06-10T08:59:25;22.70;93.40
53264;DHT22;39153;52.680;6.172;2023-06-10T09:01:52;22.80;93.30
53264;DHT22;39153;52.680;6.172;2023-06-10T09:04:18;22.90;92.70
53264;DHT22;39153;52.680;6.172;2023-06-10T09:06:45;23.00;92.40
53264;DHT22;39153;52.680;6.172;2023-06-10T09:09:14;23.20;92.60
53264;DHT22;39153;52.680;6.172;2023-06-10T09:11:42;23.30;92.60
53264;DHT22;39153;52.680;6.172;2023-06-10T09:14:08;23.50;92.50
53264;DHT22;39153;52.680;6.172;2023-06-10T09:16:35;23.70;92.50
53264;DHT22;39153;52.680;6.172;2023-06-10T09:19:01;23.80;91.90
53264;DHT22;39153;52.680;6.172;2023-06-10T09:21:33;24.00;91.90
53264;DHT22;39153;52.680;6.172;2023-06-10T09:23:59;24.20;91.80
53264;DHT22;39153;52.680;6.172;2023-06-10T09:26:28;24.30;91.70
53264;DHT22;39153;52.680;6.172;2023-06-10T09:29:04;24.40;91.50
53264;DHT22;39153;52.680;6.172;2023-06-10T09:31:31;24.50;91.40
53264;DHT22;39153;52.680;6.172;2023-06-10T09:34:13;24.60;91.40
53264;DHT22;39153;52.680;6.172;2023-06-10T09:36:40;24.70;91.30
53264;DHT22;39153;52.680;6.172;2023-06-10T09:39:17;24.80;91.40
53264;DHT22;39153;52.680;6.172;2023-06-10T09:41:44;24.90;91.60
53264;DHT22;39153;52.680;6.172;2023-06-10T09:44:15;25.10;91.40
53264;DHT22;39153;52.680;6.172;2023-06-10T09:46:41;25.20;90.90
53264;DHT22;39153;52.680;6.172;2023-06-10T09:49:07;25.20;90.90
53264;DHT22;39153;52.680;6.172;2023-06-10T09:51:33;25.40;90.70
53264;DHT22;39153;52.680;6.172;2023-06-10T09:54:02;25.40;90.60
53264;DHT22;39153;52.680;6.172;2023-06-10T09:56:37;25.40;90.40
53264;DHT22;39153;52.680;6.172;2023-06-10T09:59:06;25.50;90.60
53264;DHT22;39153;52.680;6.172;2023-06-10T10:01:32;25.60;90.20
53264;DHT22;39153;52.680;6.172;2023-06-10T10:03:59;25.70;90.20
53264;DHT22;39153;52.680;6.172;2023-06-10T10:06:26;25.80;90.10
53264;DHT22;39153;52.680;6.172;2023-06-10T10:08:52;25.80;89.80
53264;DHT22;39153;52.680;6.172;2023-06-10T10:11:20;25.90;89.90
53264;DHT22;39153;52.680;6.172;2023-06-10T10:13:50;26.00;89.50
53264;DHT22;39153;52.680;6.172;2023-06-10T10:16:21;26.00;88.60
53264;DHT22;39153;52.680;6.172;2023-06-10T10:19:04;26.00;88.90
53264;DHT22;39153;52.680;6.172;2023-06-10T10:21:38;26.10;89.70
53264;DHT22;39153;52.680;6.172;2023-06-10T10:24:21;26.20;88.20
53264;DHT22;39153;52.680;6.172;2023-06-10T10:26:48;26.30;87.50
53264;DHT22;39153;52.680;6.172;2023-06-10T10:31:50;26.40;87.50
53264;DHT22;39153;52.680;6.172;2023-06-10T10:34:27;26.50;87.50
53264;DHT22;39153;52.680;6.172;2023-06-10T10:36:55;26.60;87.60
53264;DHT22;39153;52.680;6.172;2023-06-10T10:39:22;26.70;87.30
53264;DHT22;39153;52.680;6.172;2023-06-10T10:41:49;26.80;86.90
53264;DHT22;39153;52.680;6.172;2023-06-10T10:44:15;26.80;86.00
53264;DHT22;39153;52.680;6.172;2023-06-10T10:46:49;26.80;85.80
53264;DHT22;39153;52.680;6.172;2023-06-10T10:49:17;26.80;85.60
53264;DHT22;39153;52.680;6.172;2023-06-10T10:52:01;26.90;85.50
53264;DHT22;39153;52.680;6.172;2023-06-10T10:54:32;26.90;85.50
53264;DHT22;39153;52.680;6.172;2023-06-10T10:57:20;27.00;86.40
53264;DHT22;39153;52.680;6.172;2023-06-10T11:02:19;27.20;85.90
53264;DHT22;39153;52.680;6.172;2023-06-10T11:04:57;27.30;86.50
53264;DHT22;39153;52.680;6.172;2023-06-10T11:07:25;27.50;86.50
53264;DHT22;39153;52.680;6.172;2023-06-10T11:10:12;27.60;86.80
53264;DHT22;39153;52.680;6.172;2023-06-10T11:12:53;27.70;85.60
53264;DHT22;39153;52.680;6.172;2023-06-10T11:15:24;27.80;85.90
53264;DHT22;39153;52.680;6.172;2023-06-10T11:18:24;27.90;84.80
53264;DHT22;39153;52.680;6.172;2023-06-10T11:31:25;28.20;85.50
53264;DHT22;39153;52.680;6.172;2023-06-10T11:33:57;28.40;84.10
53264;DHT22;39153;52.680;6.172;2023-06-10T11:36:24;28.50;84.90
53264;DHT22;39153;52.680;6.172;2023-06-10T11:38:57;28.60;84.60
53264;DHT22;39153;52.680;6.172;2023-06-10T11:41:26;28.60;83.50
53264;DHT22;39153;52.680;6.172;2023-06-10T11:43:53;28.70;83.90
53264;DHT22;39153;52.680;6.172;2023-06-10T11:46:21;28.80;82.40
53264;DHT22;39153;52.680;6.172;2023-06-10T11:48:52;29.00;81.80
53264;DHT22;39153;52.680;6.172;2023-06-10T11:51:19;29.10;81.40
53264;DHT22;39153;52.680;6.172;2023-06-10T11:53:48;29.10;81.70
53264;DHT22;39153;52.680;6.172;2023-06-10T11:56:28;29.20;81.50
53264;DHT22;39153;52.680;6.172;2023-06-10T11:59:05;29.40;81.10
53264;DHT22;39153;52.680;6.172;2023-06-10T12:01:36;29.50;81.20
53264;DHT22;39153;52.680;6.172;2023-06-10T12:04:04;29.70;80.50
53264;DHT22;39153;52.680;6.172;2023-06-10T12:06:48;29.70;79.50
53264;DHT22;39153;52.680;6.172;2023-06-10T12:11:41;29.90;78.80
53264;DHT22;39153;52.680;6.172;2023-06-10T12:14:07;30.00;78.70
53264;DHT22;39153;52.680;6.172;2023-06-10T12:16:33;30.10;78.10
53264;DHT22;39153;52.680;6.172;2023-06-10T12:19:05;30.20;76.90
53264;DHT22;39153;52.680;6.172;2023-06-10T12:21:33;30.30;75.70
53264;DHT22;39153;52.680;6.172;2023-06-10T12:24:10;30.30;75.90
53264;DHT22;39153;52.680;6.172;2023-06-10T12:26:37;30.40;75.50
53264;DHT22;39153;52.680;6.172;2023-06-10T12:29:23;30.50;76.50
53264;DHT22;39153;52.680;6.172;2023-06-10T12:31:59;30.70;75.50
53264;DHT22;39153;52.680;6.172;2023-06-10T12:34:39;30.80;75.30
53264;DHT22;39153;52.680;6.172;2023-06-10T12:37:14;30.90;73.40
53264;DHT22;39153;52.680;6.172;2023-06-10T12:39:41;30.90;72.20
53264;DHT22;39153;52.680;6.172;2023-06-10T12:42:12;30.90;72.40
53264;DHT22;39153;52.680;6.172;2023-06-10T12:44:41;30.90;72.90
53264;DHT22;39153;52.680;6.172;2023-06-10T12:47:10;31.00;70.80
53264;DHT22;39153;52.680;6.172;2023-06-10T12:49:38;31.00;68.00
53264;DHT22;39153;52.680;6.172;2023-06-10T12:52:05;31.00;69.10
53264;DHT22;39153;52.680;6.172;2023-06-10T12:54:32;31.10;69.10
53264;DHT22;39153;52.680;6.172;2023-06-10T12:56:57;31.20;68.30
53264;DHT22;39153;52.680;6.172;2023-06-10T12:59:23;31.40;67.80
53264;DHT22;39153;52.680;6.172;2023-06-10T13:01:53;31.30;67.10
53264;DHT22;39153;52.680;6.172;2023-06-10T13:04:20;31.30;67.10
53264;DHT22;39153;52.680;6.172;2023-06-10T13:06:47;31.30;67.30
53264;DHT22;39153;52.680;6.172;2023-06-10T13:09:14;31.50;67.40
53264;DHT22;39153;52.680;6.172;2023-06-10T13:11:41;31.60;67.90
53264;DHT22;39153;52.680;6.172;2023-06-10T13:14:07;31.80;67.80
53264;DHT22;39153;52.680;6.172;2023-06-10T13:16:32;32.00;66.90
53264;DHT22;39153;52.680;6.172;2023-06-10T13:18:59;32.20;66.20
53264;DHT22;39153;52.680;6.172;2023-06-10T13:21:26;32.20;65.20
53264;DHT22;39153;52.680;6.172;2023-06-10T13:23:51;32.10;64.60
53264;DHT22;39153;52.680;6.172;2023-06-10T13:26:17;32.10;63.90
53264;DHT22;39153;52.680;6.172;2023-06-10T13:28:44;32.00;64.10
53264;DHT22;39153;52.680;6.172;2023-06-10T13:31:09;32.10;64.40
53264;DHT22;39153;52.680;6.172;2023-06-10T13:33:35;32.20;63.70
53264;DHT22;39153;52.680;6.172;2023-06-10T13:36:01;32.40;64.30
53264;DHT22;39153;52.680;6.172;2023-06-10T13:38:27;32.50;63.70
53264;DHT22;39153;52.680;6.172;2023-06-10T13:40:52;32.50;62.60
53264;DHT22;39153;52.680;6.172;2023-06-10T13:43:18;32.60;62.40
53264;DHT22;39153;52.680;6.172;2023-06-10T13:45:44;32.70;63.40
53264;DHT22;39153;52.680;6.172;2023-06-10T13:48:10;32.80;63.00
53264;DHT22;39153;52.680;6.172;2023-06-10T13:50:37;33.00;62.70
53264;DHT22;39153;52.680;6.172;2023-06-10T13:53:03;33.10;61.70
53264;DHT22;39153;52.680;6.172;2023-06-10T13:55:29;33.20;61.40
53264;DHT22;39153;52.680;6.172;2023-06-10T13:57:54;33.30;60.10
53264;DHT22;39153;52.680;6.172;2023-06-10T14:00:20;33.40;60.70
53264;DHT22;39153;52.680;6.172;2023-06-10T14:02:46;33.50;60.90
53264;DHT22;39153;52.680;6.172;2023-06-10T14:05:12;33.60;60.60
53264;DHT22;39153;52.680;6.172;2023-06-10T14:07:38;33.70;58.90
53264;DHT22;39153;52.680;6.172;2023-06-10T14:10:05;33.60;58.50
53264;DHT22;39153;52.680;6.172;2023-06-10T14:12:31;33.80;59.30
53264;DHT22;39153;52.680;6.172;2023-06-10T14:14:57;34.00;59.00
53264;DHT22;39153;52.680;6.172;2023-06-10T14:17:22;34.10;58.20
53264;DHT22;39153;52.680;6.172;2023-06-10T14:19:48;34.10;57.40
53264;DHT22;39153;52.680;6.172;2023-06-10T14:22:14;34.00;57.40
53264;DHT22;39153;52.680;6.172;2023-06-10T14:24:40;34.10;57.50
53264;DHT22;39153;52.680;6.172;2023-06-10T14:27:06;34.30;58.30
53264;DHT22;39153;52.680;6.172;2023-06-10T14:29:32;34.40;57.70
53264;DHT22;39153;52.680;6.172;2023-06-10T14:31:59;34.60;56.80
53264;DHT22;39153;52.680;6.172;2023-06-10T14:34:25;34.60;55.80
53264;DHT22;39153;52.680;6.172;2023-06-10T14:36:55;34.70;55.50
53264;DHT22;39153;52.680;6.172;2023-06-10T14:39:21;34.60;55.40
53264;DHT22;39153;52.680;6.172;2023-06-10T14:41:47;34.70;55.00
53264;DHT22;39153;52.680;6.172;2023-06-10T14:44:13;34.80;54.10
53264;DHT22;39153;52.680;6.172;2023-06-10T14:46:38;34.80;53.80
53264;DHT22;39153;52.680;6.172;2023-06-10T14:49:04;34.80;53.60
53264;DHT22;39153;52.680;6.172;2023-06-10T14:51:30;34.80;53.20
53264;DHT22;39153;52.680;6.172;2023-06-10T14:53:55;34.80;53.00
53264;DHT22;39153;52.680;6.172;2023-06-10T14:56:22;34.90;52.80
53264;DHT22;39153;52.680;6.172;2023-06-10T14:58:47;34.90;52.40
53264;DHT22;39153;52.680;6.172;2023-06-10T15:01:13;35.00;52.10
53264;DHT22;39153;52.680;6.172;2023-06-10T15:03:39;35.00;51.80
53264;DHT22;39153;52.680;6.172;2023-06-10T15:06:04;35.10;52.50
53264;DHT22;39153;52.680;6.172;2023-06-10T15:08:30;35.40;52.50
53264;DHT22;39153;52.680;6.172;2023-06-10T15:10:56;35.50;52.30
53264;DHT22;39153;52.680;6.172;2023-06-10T15:13:23;35.60;52.00
53264;DHT22;39153;52.680;6.172;2023-06-10T15:15:48;35.60;51.50
53264;DHT22;39153;52.680;6.172;2023-06-10T15:18:14;35.70;51.60
53264;DHT22;39153;52.680;6.172;2023-06-10T15:20:40;35.60;50.90
53264;DHT22;39153;52.680;6.172;2023-06-10T15:23:05;35.50;50.90
53264;DHT22;39153;52.680;6.172;2023-06-10T15:25:33;35.70;51.20
53264;DHT22;39153;52.680;6.172;2023-06-10T15:27:59;35.80;50.90
53264;DHT22;39153;52.680;6.172;2023-06-10T15:30:25;36.00;50.90
53264;DHT22;39153;52.680;6.172;2023-06-10T15:32:50;36.10;50.90
53264;DHT22;39153;52.680;6.172;2023-06-10T15:35:16;36.20;50.60
53264;DHT22;39153;52.680;6.172;2023-06-10T15:37:42;36.30;50.30
53264;DHT22;39153;52.680;6.172;2023-06-10T15:40:08;36.40;50.20
53264;DHT22;39153;52.680;6.172;2023-06-10T15:42:34;36.40;50.10
53264;DHT22;39153;52.680;6.172;2023-06-10T15:45:00;36.40;49.00
53264;DHT22;39153;52.680;6.172;2023-06-10T15:47:25;36.30;49.20
53264;DHT22;39153;52.680;6.172;2023-06-10T15:49:51;36.50;49.50
53264;DHT22;39153;52.680;6.172;2023-06-10T15:52:17;36.60;49.20
53264;DHT22;39153;52.680;6.172;2023-06-10T15:54:42;36.70;49.50
53264;DHT22;39153;52.680;6.172;2023-06-10T15:57:08;36.80;50.00